Notice: Undefined index: language in /storage/ssd5/510/10272510/public_html/vam1/vam/index.php on line 25
Brand Clickair VA

 METAR AND TAF INFORMATION
METAR FOR LIRN
ADDS - METARS form results

(0213 UTC 26 September 2020)
Data provider http://aviationweather.gov/metar/data/
 
METAR text: LIRN 260150Z 28013KT 8000 TSRA FEW025CB BKN040 15/08 Q0999 NOSIG
Conditions at: LIRN (NAPLES/CAPODICHI, IT) observed 0150 UTC 26 September 2020
Temperature: 15.0°C (59°F)
Dewpoint: 8.0°C (46°F) [RH = 63%]
Pressure (altimeter): 29.50 inches Hg (999.0 mb)
Winds: from the W (280 degrees) at 15 MPH (13 knots; 6.7 m/s)
Visibility: 5 miles ( 8 km)
Ceiling: 4000 feet AGL
Clouds: few clouds at 2500 feet AGL
broken clouds at 4000 feet AGL
Weather: TSRA  (rain associated with thunderstorm(s))

METAR text: LIRN 260120Z 26013KT 240V300 9999 FEW025 BKN040 18/10 Q0999 TEMPO TSRA
Conditions at: LIRN (NAPLES/CAPODICHI, IT) observed 0120 UTC 26 September 2020
Temperature: 18.0°C (64°F)
Dewpoint: 10.0°C (50°F) [RH = 59%]
Pressure (altimeter): 29.50 inches Hg (999.0 mb)
Winds: from the W (260 degrees) at 15 MPH (13 knots; 6.7 m/s)
Visibility: 6 or more miles (10+ km)
Ceiling: 4000 feet AGL
Clouds: few clouds at 2500 feet AGL
broken clouds at 4000 feet AGL
Weather: no significant weather observed at this time

Forecast for: LIRN (NAPLES/CAPODICHI, IT)
Text: TAF LIRN 252300Z 2600/2624 24018KT 9999 SCT030
Forecast period: 0000 UTC 26 September 2020 to 0000 UTC 27 September 2020
Forecast type: FROM: standard forecast or significant change
Winds: from the WSW (240 degrees) at 21 MPH (18 knots; 9.3 m/s)
Visibility: 6 or more miles (10+ km)
Ceiling: at least 12,000 feet AGL
Clouds: scattered clouds at 3000 feet AGL
Weather: no significant weather forecast for this period
Text: TEMPO 2600/2603 4000 TSRA
Forecast period: 0000 to 0300 UTC 26 September 2020
Forecast type: TEMPORARY: The following changes expected for less than half the time period
Visibility: 2.49 miles (4.01 km)
Ceiling: unknown
Clouds: missing
Weather: TSRA  (rain associated with thunderstorm(s))

 AIRPORT MAP

 RUNWAY INFORMATION
Runway 06 Runway length 8622 ft Runway width 148 ft
Runway elevation 284 ft Runway displaced threshold 1309 ft Runway heading 58
Runway 24 Runway length 8622 ft Runway width 148 ft
Runway elevation 223 ft Runway displaced threshold 624 ft Runway heading 238

 AIRPORT FREQUENCIES
Type APP Name NAPOLI RAD Frequency 124.35 MHZ
Type ATIS Name ATIS Frequency 135.975 MHZ
Type DIR Name NAPOLI DIR Frequency 120.95 MHZ
Type GCCD Name NAPOLI GND Frequency 121.9 MHZ
Type OPS Name USN BASE O Frequency 118.275 MHZ
Type PMSV Name PMSV METRO Frequency 34.1 MHZ
Type POST Name ATOC Frequency 118.275 MHZ
Type TWR Name NAPOLI TWR Frequency 118.5 MHZ

 AIRPORT NEAR NAVIGATION AIDS
Type VOR-DME Name Pomigliano Frequency 117850 KHZ
Type NDB Name Pomigliano Frequency 351 KHZ



Powered by Virtual Airlines Manager [v2.6.2]